Time;durP1;ratioP1;P1;durP2;ratioP2;P2;SDS_P1;SDS_P2;PMS_P1;PMS_P2;Temp;Humidity;BMP_temperature;BMP_pressure;BME280_temperature;BME280_humidity;BME280_pressure;Samples;Min_cycle;Max_cycle;Signal;HPM_P1;HPM_P2
2023/11/13 00:01:29;;;;;;;1999.90;999.90;;;5.30;99.90;;;;;;4970374;28;20019;-71
2023/11/13 00:03:55;;;;;;;1999.90;999.90;;;5.30;99.90;;;;;;4967798;28;20113;-73
2023/11/13 00:06:21;;;;;;;1999.90;999.90;;;5.30;99.90;;;;;;4966885;28;20030;-70
2023/11/13 00:08:47;;;;;;;1999.90;999.90;;;5.20;99.90;;;;;;4960588;28;20031;-71
2023/11/13 00:11:13;;;;;;;1999.90;999.90;;;5.20;99.90;;;;;;4966360;28;20413;-71
2023/11/13 00:13:38;;;;;;;1999.90;999.90;;;5.10;99.90;;;;;;4964318;28;20034;-72
2023/11/13 00:16:04;;;;;;;1999.90;999.90;;;5.10;99.90;;;;;;4956205;28;20284;-72
2023/11/13 00:18:31;;;;;;;1999.90;999.90;;;5.10;99.90;;;;;;4971355;28;20062;-72
2023/11/13 00:20:58;;;;;;;1999.90;999.90;;;5.10;99.90;;;;;;4965980;28;20027;-72
2023/11/13 00:23:24;;;;;;;;;;;5.10;99.90;;;;;;4970850;28;20055;-72
2023/11/13 00:25:49;;;;;;;1999.90;999.90;;;5.10;99.90;;;;;;4971189;28;20205;-73
2023/11/13 00:28:15;;;;;;;1999.90;999.90;;;5.00;99.90;;;;;;4965823;28;20089;-72
2023/11/13 00:30:41;;;;;;;1999.90;999.90;;;5.00;99.90;;;;;;4962354;28;20028;-73
2023/11/13 00:33:08;;;;;;;1999.90;999.90;;;5.00;99.90;;;;;;4964681;28;20100;-71
2023/11/13 00:35:33;;;;;;;;;;;5.00;99.90;;;;;;4963678;28;20027;-71
2023/11/13 00:38:00;;;;;;;1999.90;999.90;;;5.00;99.90;;;;;;4967496;28;20032;-72
2023/11/13 00:40:25;;;;;;;1999.90;999.90;;;5.00;99.90;;;;;;4963123;28;20058;-72
2023/11/13 00:42:51;;;;;;;1999.90;999.90;;;4.90;99.90;;;;;;4956328;28;20422;-72
2023/11/13 00:45:18;;;;;;;1999.90;999.90;;;4.90;99.90;;;;;;4958261;28;20030;-71
2023/11/13 00:47:43;;;;;;;1999.90;999.90;;;4.80;99.90;;;;;;4961204;28;20033;-71
2023/11/13 00:50:11;;;;;;;1999.90;999.90;;;4.80;99.90;;;;;;4966477;28;20027;-72
2023/11/13 00:52:37;;;;;;;1999.90;999.90;;;4.80;99.90;;;;;;4966520;28;20037;-71
2023/11/13 00:55:04;;;;;;;1999.90;999.90;;;4.90;99.90;;;;;;4966250;28;20019;-71
2023/11/13 00:57:30;;;;;;;1999.90;999.90;;;4.90;99.90;;;;;;4963221;28;20432;-72
2023/11/13 00:59:55;;;;;;;1999.90;999.90;;;4.90;99.90;;;;;;4964951;28;20039;-70
2023/11/13 01:29:18;;;;;;;1999.90;999.90;;;5.00;99.90;;;;;;4967920;28;20092;-71
2023/11/13 01:31:44;;;;;;;1999.90;999.90;;;5.00;99.90;;;;;;4960224;28;20565;-71
2023/11/13 01:34:12;;;;;;;1999.90;999.90;;;4.90;99.90;;;;;;4965364;28;20046;-72
2023/11/13 01:36:39;;;;;;;1999.90;999.90;;;4.90;99.90;;;;;;4954311;28;20027;-72
2023/11/13 01:39:05;;;;;;;1999.90;999.90;;;4.90;99.90;;;;;;4967069;28;20043;-72
2023/11/13 01:41:34;;;;;;;1999.90;999.90;;;4.90;99.90;;;;;;4961479;28;20031;-72
2023/11/13 01:44:00;;;;;;;1999.90;999.90;;;4.80;99.90;;;;;;4969583;28;20496;-72
2023/11/13 01:46:29;;;;;;;1999.90;999.90;;;4.80;99.90;;;;;;4966740;28;20046;-71
2023/11/13 01:48:56;;;;;;;1999.90;999.90;;;4.70;99.90;;;;;;4970146;28;20386;-70
2023/11/13 01:51:23;;;;;;;1999.90;999.90;;;4.80;99.90;;;;;;4965211;28;20066;-71
2023/11/13 01:53:49;;;;;;;1999.90;999.90;;;4.70;99.90;;;;;;4968467;28;20088;-73
2023/11/13 01:56:16;;;;;;;1999.90;999.90;;;4.70;99.90;;;;;;4965914;28;20428;-71
2023/11/13 01:58:42;;;;;;;1999.90;999.90;;;4.70;99.90;;;;;;4971562;28;20042;-72
2023/11/13 02:01:08;;;;;;;1999.90;999.90;;;4.70;99.90;;;;;;4967786;28;20031;-71
2023/11/13 02:03:35;;;;;;;1999.90;999.90;;;4.70;99.90;;;;;;4971105;28;20108;-72
2023/11/13 02:06:03;;;;;;;1999.90;999.90;;;4.80;99.90;;;;;;4965820;28;20312;-71
2023/11/13 02:08:29;;;;;;;1999.90;999.90;;;4.80;99.90;;;;;;4959643;28;20106;-70
2023/11/13 02:10:55;;;;;;;1999.90;999.90;;;4.90;99.90;;;;;;4959256;28;20397;-71
2023/11/13 02:13:21;;;;;;;1999.90;999.90;;;4.90;99.90;;;;;;4964657;28;20020;-71
2023/11/13 02:15:48;;;;;;;1999.90;999.90;;;4.90;99.90;;;;;;4961123;28;20104;-71
2023/11/13 02:18:14;;;;;;;1999.90;999.90;;;5.00;99.90;;;;;;4964475;28;20886;-73
2023/11/13 02:20:41;;;;;;;1999.90;999.90;;;5.00;99.90;;;;;;4970172;28;20130;-71
2023/11/13 02:23:07;;;;;;;1999.90;999.90;;;5.00;99.90;;;;;;4963519;28;20026;-70
2023/11/13 02:25:37;;;;;;;1999.90;999.90;;;5.10;99.90;;;;;;4966554;28;20039;-71
2023/11/13 02:28:06;;;;;;;1999.90;999.90;;;5.10;99.90;;;;;;4968185;28;20057;-73
2023/11/13 02:30:38;;;;;;;1999.90;999.90;;;5.10;99.90;;;;;;4968855;28;20040;-71
2023/11/13 02:33:04;;;;;;;1999.90;999.90;;;5.10;99.90;;;;;;4962966;28;20325;-71
2023/11/13 02:35:30;;;;;;;1999.90;999.90;;;5.10;99.90;;;;;;4967579;28;20022;-73
2023/11/13 02:37:55;;;;;;;1999.90;999.90;;;5.00;99.90;;;;;;4971778;28;20284;-70
2023/11/13 02:40:21;;;;;;;1999.90;999.90;;;5.00;99.90;;;;;;4968530;28;20484;-72
2023/11/13 02:42:47;;;;;;;1999.90;999.90;;;5.10;99.90;;;;;;4972445;28;20023;-72
2023/11/13 02:45:13;;;;;;;1999.90;999.90;;;5.00;99.90;;;;;;4965623;28;20046;-71
2023/11/13 02:47:38;;;;;;;1999.90;999.90;;;5.00;99.90;;;;;;4967125;28;20027;-73
2023/11/13 02:50:07;;;;;;;1999.90;999.90;;;5.00;99.90;;;;;;4962541;28;20044;-72
2023/11/13 02:52:33;;;;;;;1999.90;999.90;;;5.00;99.90;;;;;;4970074;28;20034;-72
2023/11/13 02:54:58;;;;;;;1999.90;999.90;;;5.00;99.90;;;;;;4972001;28;20031;-71
2023/11/13 02:57:24;;;;;;;1999.90;999.90;;;5.00;99.90;;;;;;4969073;28;20039;-71
2023/11/13 02:59:50;;;;;;;1999.90;999.90;;;5.00;99.90;;;;;;4966315;28;20028;-73
2023/11/13 03:02:16;;;;;;;1999.90;999.90;;;5.00;99.90;;;;;;4958878;28;20106;-71
2023/11/13 03:04:42;;;;;;;1999.90;999.90;;;5.10;99.90;;;;;;4966717;28;20520;-71
2023/11/13 03:07:07;;;;;;;1999.90;999.90;;;5.00;99.90;;;;;;4985873;28;20038;-72
2023/11/13 03:09:33;;;;;;;1999.90;999.90;;;5.10;99.90;;;;;;4979438;28;20028;-70
2023/11/13 03:11:59;;;;;;;1999.90;999.90;;;5.10;99.90;;;;;;4964351;28;20392;-71
2023/11/13 03:14:25;;;;;;;1999.90;999.90;;;5.10;99.90;;;;;;4970825;28;20030;-71
2023/11/13 03:16:51;;;;;;;1999.90;999.90;;;5.10;99.90;;;;;;4971307;28;20037;-71
2023/11/13 03:19:16;;;;;;;1999.90;999.90;;;5.20;99.90;;;;;;4967957;28;20035;-70
2023/11/13 03:21:42;;;;;;;1999.90;999.90;;;5.30;99.90;;;;;;4968838;28;20025;-71
2023/11/13 03:24:08;;;;;;;1999.90;999.90;;;5.30;99.90;;;;;;4969891;28;20417;-71
2023/11/13 03:26:34;;;;;;;1999.90;999.90;;;5.30;99.90;;;;;;4971682;28;20034;-71
2023/11/13 03:29:00;;;;;;;1999.90;999.90;;;5.30;99.90;;;;;;4971704;28;20084;-71
2023/11/13 03:31:26;;;;;;;1999.90;999.90;;;5.30;99.90;;;;;;4972381;28;20039;-71
2023/11/13 03:33:53;;;;;;;1999.90;999.90;;;5.30;99.90;;;;;;4966167;28;20030;-73
2023/11/13 03:36:19;;;;;;;1999.90;999.90;;;5.30;99.90;;;;;;4964496;28;20064;-71
2023/11/13 03:38:45;;;;;;;1999.90;999.90;;;5.30;99.90;;;;;;4949662;28;20459;-71
2023/11/13 03:41:11;;;;;;;1999.90;999.90;;;5.30;99.90;;;;;;4967913;28;20169;-70
2023/11/13 03:43:37;;;;;;;1999.90;999.90;;;5.40;99.90;;;;;;4966229;28;20038;-71
2023/11/13 03:46:02;;;;;;;1999.90;999.90;;;5.40;99.90;;;;;;4972033;28;20605;-71
2023/11/13 03:48:28;;;;;;;1999.90;999.90;;;5.40;99.90;;;;;;4967604;28;20027;-70
2023/11/13 03:50:54;;;;;;;1999.90;999.90;;;5.40;99.90;;;;;;4969258;28;20027;-72
2023/11/13 03:53:20;;;;;;;1999.90;999.90;;;5.40;99.90;;;;;;4970939;28;20027;-71
2023/11/13 03:55:46;;;;;;;1999.90;999.90;;;5.40;99.90;;;;;;4968601;28;20049;-70
2023/11/13 03:58:12;;;;;;;1999.90;999.90;;;5.50;99.90;;;;;;4952354;28;20683;-70
2023/11/13 04:00:38;;;;;;;1999.90;999.90;;;5.50;99.90;;;;;;4970530;28;20055;-70
2023/11/13 04:03:03;;;;;;;1999.90;999.90;;;5.60;99.90;;;;;;4964896;28;20031;-74
2023/11/13 04:05:29;;;;;;;1999.90;999.90;;;5.50;99.90;;;;;;4962283;28;20050;-70
2023/11/13 04:07:55;;;;;;;1999.90;999.90;;;5.50;99.90;;;;;;4965619;28;20034;-71
2023/11/13 04:10:22;;;;;;;1999.90;999.90;;;5.50;99.90;;;;;;4961179;28;20041;-70
2023/11/13 04:12:48;;;;;;;1999.90;999.90;;;5.60;99.90;;;;;;4968365;28;20023;-71
2023/11/13 04:15:14;;;;;;;1999.90;999.90;;;5.50;99.90;;;;;;4981410;28;20084;-71
2023/11/13 04:17:40;;;;;;;1999.90;999.90;;;5.60;99.90;;;;;;4957800;28;20093;-70
2023/11/13 04:20:07;;;;;;;1999.90;999.90;;;5.60;99.90;;;;;;4967687;28;20109;-72
2023/11/13 04:22:33;;;;;;;1999.90;999.90;;;5.60;99.90;;;;;;4955502;28;20058;-71
2023/11/13 04:25:03;;;;;;;1999.90;999.90;;;5.70;99.90;;;;;;4964009;28;20436;-70
2023/11/13 04:27:29;;;;;;;1999.90;999.90;;;5.70;99.90;;;;;;4965273;28;20026;-71
2023/11/13 04:29:55;;;;;;;1999.90;999.90;;;5.70;99.90;;;;;;4954978;28;21544;-70
2023/11/13 04:32:22;;;;;;;1999.90;999.90;;;5.70;99.90;;;;;;4963881;28;20030;-70
2023/11/13 04:34:48;;;;;;;;;;;5.80;99.90;;;;;;4970150;28;20449;-71
2023/11/13 04:37:13;;;;;;;1999.90;999.90;;;5.80;99.90;;;;;;4966819;28;19952;-70
2023/11/13 04:39:39;;;;;;;1999.90;999.90;;;5.80;99.90;;;;;;4962779;28;20046;-70
2023/11/13 04:42:05;;;;;;;1999.90;999.90;;;5.80;99.90;;;;;;4958119;28;20036;-73
2023/11/13 04:44:31;;;;;;;1999.90;999.90;;;5.80;99.90;;;;;;4960280;28;20019;-71
2023/11/13 04:46:57;;;;;;;1999.90;999.90;;;5.90;99.90;;;;;;4967924;28;20304;-70
2023/11/13 04:49:23;;;;;;;1999.90;999.90;;;5.90;99.90;;;;;;4966828;28;20343;-70
2023/11/13 04:51:48;;;;;;;1999.90;999.90;;;5.90;99.90;;;;;;4959812;28;20027;-70
2023/11/13 04:54:14;;;;;;;1999.90;999.90;;;5.90;99.90;;;;;;4966537;28;20027;-71
2023/11/13 04:56:40;;;;;;;1999.90;999.90;;;5.90;99.90;;;;;;4960042;28;20042;-70
2023/11/13 04:59:09;;;;;;;1999.90;999.90;;;5.80;99.90;;;;;;4977506;28;20043;-70
2023/11/13 05:01:39;;;;;;;1999.90;999.90;;;5.90;99.90;;;;;;4961183;28;20104;-70
2023/11/13 05:04:09;;;;;;;1999.90;999.90;;;5.90;99.90;;;;;;4968815;28;20076;-74
2023/11/13 05:06:35;;;;;;;1999.90;999.90;;;5.90;99.90;;;;;;4967830;28;20031;-70
2023/11/13 05:09:05;;;;;;;1999.90;999.90;;;5.90;99.90;;;;;;4971386;28;20070;-72
2023/11/13 05:11:31;;;;;;;1999.90;999.90;;;5.90;99.90;;;;;;4965653;28;20042;-70
2023/11/13 05:13:57;;;;;;;1999.90;999.90;;;6.00;99.90;;;;;;4966671;28;20031;-70
2023/11/13 05:16:24;;;;;;;1999.90;999.90;;;6.00;99.90;;;;;;4964114;28;20035;-70
2023/11/13 05:18:51;;;;;;;1999.90;999.90;;;6.00;99.90;;;;;;4967876;28;20027;-70
2023/11/13 05:21:18;;;;;;;1999.90;999.90;;;6.00;99.90;;;;;;4959811;28;20030;-70
2023/11/13 05:23:45;;;;;;;1999.90;999.90;;;6.00;99.90;;;;;;4966000;28;20114;-75
2023/11/13 05:26:11;;;;;;;1999.90;999.90;;;6.00;99.90;;;;;;4966599;28;20022;-71
2023/11/13 05:28:37;;;;;;;1999.90;999.90;;;6.00;99.90;;;;;;4959778;28;20432;-70
2023/11/13 05:31:03;;;;;;;1999.90;999.90;;;6.00;99.90;;;;;;4968015;28;20329;-73
2023/11/13 05:33:29;;;;;;;1999.90;999.90;;;6.00;99.90;;;;;;4961259;28;20028;-70
2023/11/13 05:35:56;;;;;;;1999.90;999.90;;;6.10;99.90;;;;;;4966610;28;20161;-71
2023/11/13 05:38:22;;;;;;;1999.90;999.90;;;6.10;99.90;;;;;;4966424;28;20058;-70
2023/11/13 05:40:48;;;;;;;1999.90;999.90;;;6.10;99.90;;;;;;4969099;28;20036;-72
2023/11/13 05:43:14;;;;;;;1999.90;999.90;;;6.10;99.90;;;;;;4969929;28;20027;-70
2023/11/13 05:45:40;;;;;;;1999.90;999.90;;;6.20;99.90;;;;;;4962553;28;20111;-71
2023/11/13 05:48:07;;;;;;;1999.90;999.90;;;6.20;99.90;;;;;;4971313;28;20594;-70
2023/11/13 05:50:33;;;;;;;1999.90;999.90;;;6.20;99.90;;;;;;4963159;28;20118;-71
2023/11/13 05:52:58;;;;;;;1999.90;999.90;;;6.20;99.90;;;;;;4964195;28;20069;-70
2023/11/13 05:55:24;;;;;;;1999.90;999.90;;;6.20;99.90;;;;;;4969509;28;20346;-70
2023/11/13 05:57:53;;;;;;;1999.90;999.90;;;6.30;99.90;;;;;;4962570;28;20042;-70
2023/11/13 06:00:22;;;;;;;1999.90;999.90;;;6.40;99.90;;;;;;4960625;28;20038;-70
2023/11/13 06:02:48;;;;;;;1999.90;999.90;;;6.40;99.90;;;;;;4971492;28;20098;-70
2023/11/13 06:05:15;;;;;;;1999.90;999.90;;;6.40;99.90;;;;;;4965011;28;20023;-70
2023/11/13 06:07:41;;;;;;;1999.90;999.90;;;6.40;99.90;;;;;;4967905;28;20035;-71
2023/11/13 06:10:10;;;;;;;1999.90;999.90;;;6.40;99.90;;;;;;4956259;28;20065;-70
2023/11/13 06:12:39;;;;;;;1999.90;999.90;;;6.40;99.90;;;;;;4965975;28;20454;-70
2023/11/13 06:15:13;;;;;;;1999.90;999.90;;;6.50;99.90;;;;;;4967224;28;20121;-71
2023/11/13 06:17:39;;;;;;;1999.90;999.90;;;6.50;99.90;;;;;;4964407;28;20066;-71
2023/11/13 06:20:05;;;;;;;1999.90;999.90;;;6.50;99.90;;;;;;4969425;28;20110;-70
2023/11/13 06:22:31;;;;;;;1999.90;999.90;;;6.50;99.90;;;;;;4963985;28;20077;-72
2023/11/13 06:24:57;;;;;;;1999.90;999.90;;;6.60;99.90;;;;;;4973308;28;20045;-70
2023/11/13 06:27:23;;;;;;;1999.90;999.90;;;6.60;99.90;;;;;;4959174;28;20050;-71
2023/11/13 06:29:50;;;;;;;1999.90;999.90;;;6.60;99.90;;;;;;4966880;28;20085;-70
2023/11/13 06:32:16;;;;;;;1999.90;999.90;;;6.60;99.90;;;;;;4965921;28;20797;-71
2023/11/13 06:34:41;;;;;;;1999.90;999.90;;;6.60;99.90;;;;;;4961497;28;20126;-71
2023/11/13 06:37:07;;;;;;;1999.90;999.90;;;6.60;99.90;;;;;;4962696;28;20039;-71
2023/11/13 06:39:33;;;;;;;1999.90;999.90;;;6.60;99.90;;;;;;4962731;28;20051;-73
2023/11/13 06:41:58;;;;;;;1999.90;999.90;;;6.60;99.90;;;;;;4964267;28;20093;-71
2023/11/13 06:44:24;;;;;;;1999.90;999.90;;;6.70;99.90;;;;;;4968086;28;20030;-71
2023/11/13 06:46:50;;;;;;;1999.90;999.90;;;6.70;99.90;;;;;;4969901;28;20444;-71
2023/11/13 06:49:18;;;;;;;1999.90;999.90;;;6.80;99.90;;;;;;4960984;28;20371;-72
2023/11/13 06:51:44;;;;;;;1999.90;999.90;;;6.80;99.90;;;;;;4958159;28;20023;-71
2023/11/13 06:54:10;;;;;;;1999.90;999.90;;;6.90;99.90;;;;;;4968333;28;20035;-71
2023/11/13 06:56:37;;;;;;;1999.90;999.90;;;6.90;99.90;;;;;;4962947;28;20511;-71
2023/11/13 06:59:03;;;;;;;1999.90;999.90;;;6.90;99.90;;;;;;4964442;28;20074;-71
2023/11/13 07:01:38;;;;;;;1999.90;999.90;;;7.00;99.90;;;;;;4969819;28;20027;-70
2023/11/13 07:04:04;;;;;;;1999.90;999.90;;;7.00;99.90;;;;;;4971170;28;20026;-72
2023/11/13 07:06:31;;;;;;;1999.90;999.90;;;7.00;99.90;;;;;;4969360;28;20023;-71
2023/11/13 07:08:58;;;;;;;1999.90;999.90;;;7.10;99.90;;;;;;4966437;28;20063;-71
2023/11/13 07:11:24;;;;;;;1999.90;999.90;;;7.10;99.90;;;;;;4968185;28;20027;-72
2023/11/13 07:13:50;;;;;;;1999.90;999.90;;;7.20;99.90;;;;;;4966970;28;20031;-72
2023/11/13 07:16:16;;;;;;;1999.90;999.90;;;7.20;99.90;;;;;;4968316;28;20042;-72
2023/11/13 07:18:41;;;;;;;1999.90;999.90;;;7.30;99.90;;;;;;4963463;28;20063;-72
2023/11/13 07:21:07;;;;;;;1999.90;999.90;;;7.30;99.90;;;;;;4970621;28;20316;-72
2023/11/13 07:23:33;;;;;;;1999.90;999.90;;;7.40;99.90;;;;;;4970366;28;20025;-72
2023/11/13 07:25:58;;;;;;;1999.90;999.90;;;7.40;99.90;;;;;;4970994;28;20027;-73
2023/11/13 07:28:24;;;;;;;1999.90;999.90;;;7.40;99.90;;;;;;4966062;28;20081;-73
2023/11/13 07:30:51;;;;;;;1999.90;999.90;;;7.50;99.90;;;;;;4966181;28;20041;-73
2023/11/13 07:33:17;;;;;;;1999.90;999.90;;;7.50;99.90;;;;;;4965714;28;20031;-72
2023/11/13 07:35:43;;;;;;;1999.90;999.90;;;7.50;99.90;;;;;;4965568;28;20041;-73
2023/11/13 07:38:09;;;;;;;1999.90;999.90;;;7.50;99.90;;;;;;4971395;28;20047;-72
2023/11/13 07:40:37;;;;;;;1999.90;999.90;;;7.50;99.90;;;;;;4985141;28;20023;-72
2023/11/13 07:43:04;;;;;;;1999.90;999.90;;;7.60;99.90;;;;;;4970732;28;20035;-72
2023/11/13 07:45:30;;;;;;;1999.90;999.90;;;7.50;99.90;;;;;;4973796;28;20294;-72
2023/11/13 07:47:56;;;;;;;1999.90;999.90;;;7.60;99.90;;;;;;4976160;28;20518;-73
2023/11/13 07:50:23;;;;;;;1999.90;999.90;;;7.70;99.90;;;;;;4987735;28;20077;-72
2023/11/13 07:52:50;;;;;;;1999.90;999.90;;;7.60;99.90;;;;;;4996547;28;20038;-72
2023/11/13 07:55:18;;;;;;;;;;;7.80;99.90;;;;;;4972098;28;20073;-72
2023/11/13 07:57:44;;;;;;;1999.90;999.90;;;7.80;99.90;;;;;;4964936;28;19911;-73
2023/11/13 08:00:11;;;;;;;1999.90;999.90;;;7.90;99.90;;;;;;4969487;28;20033;-72
2023/11/13 08:02:42;;;;;;;1999.90;999.90;;;7.90;99.90;;;;;;4960615;28;20046;-73
2023/11/13 08:05:11;;;;;;;1999.90;999.90;;;8.00;99.90;;;;;;4968426;28;20023;-72
2023/11/13 08:07:44;;;;;;;1999.90;999.90;;;8.00;99.90;;;;;;4971172;28;20323;-73
2023/11/13 08:10:13;;;;;;;1999.90;999.90;;;8.00;99.90;;;;;;4965516;28;20318;-72
2023/11/13 08:12:42;;;;;;;1999.90;999.90;;;8.10;99.90;;;;;;4977440;28;20484;-72
2023/11/13 08:15:09;;;;;;;1999.90;999.90;;;8.10;99.90;;;;;;4965561;28;20065;-72
2023/11/13 08:17:35;;;;;;;1999.90;999.90;;;8.10;99.90;;;;;;4971991;28;20504;-72
2023/11/13 08:20:01;;;;;;;1999.90;999.90;;;8.20;99.90;;;;;;4969823;28;20046;-73
2023/11/13 08:22:26;;;;;;;1999.90;999.90;;;8.20;99.90;;;;;;4971822;28;20539;-72
2023/11/13 08:24:52;;;;;;;1999.90;999.90;;;8.20;99.90;;;;;;4974821;28;20026;-73
2023/11/13 08:27:18;;;;;;;1999.90;999.90;;;8.30;99.90;;;;;;4980356;28;20033;-73
2023/11/13 08:29:44;;;;;;;1999.90;999.90;;;8.30;99.90;;;;;;4964623;28;20453;-72
2023/11/13 08:32:10;;;;;;;1999.90;999.90;;;8.40;99.90;;;;;;4961781;28;20031;-73
2023/11/13 08:34:40;;;;;;;1999.90;999.90;;;8.50;99.90;;;;;;4968013;28;20031;-73
2023/11/13 08:37:05;;;;;;;1999.90;999.90;;;8.50;99.90;;;;;;4960255;28;20034;-72
2023/11/13 08:39:31;;;;;;;1999.90;999.90;;;8.50;99.90;;;;;;4967646;28;20095;-72
2023/11/13 08:41:57;;;;;;;1999.90;999.90;;;8.60;99.90;;;;;;4963120;28;20027;-73
2023/11/13 08:44:25;;;;;;;1999.90;999.90;;;8.60;99.90;;;;;;4965325;28;20031;-73
2023/11/13 08:46:51;;;;;;;1999.90;999.90;;;8.60;99.90;;;;;;4957743;28;20107;-73
2023/11/13 08:49:16;;;;;;;1999.90;999.90;;;8.70;99.90;;;;;;4977097;28;20027;-72
2023/11/13 08:51:42;;;;;;;1999.90;999.90;;;8.70;99.90;;;;;;4969995;28;20332;-72
2023/11/13 08:54:09;;;;;;;1999.90;999.90;;;8.80;99.90;;;;;;4958988;28;20414;-73
2023/11/13 08:56:35;;;;;;;1999.90;999.90;;;8.80;99.90;;;;;;4980338;28;20038;-73
2023/11/13 08:59:01;;;;;;;1999.90;999.90;;;8.90;99.90;;;;;;4968901;28;20034;-73
2023/11/13 09:01:29;;;;;;;1999.90;999.90;;;8.80;99.90;;;;;;4974879;28;20066;-72
2023/11/13 09:03:55;;;;;;;1999.90;999.90;;;8.90;99.90;;;;;;4974025;28;20054;-74
2023/11/13 09:06:20;;;;;;;1999.90;999.90;;;9.00;99.90;;;;;;4973485;28;20349;-72
2023/11/13 09:08:48;;;;;;;1999.90;999.90;;;9.00;99.90;;;;;;4973201;28;20035;-72
2023/11/13 09:11:17;;;;;;;1999.90;999.90;;;9.10;99.90;;;;;;4971775;28;20475;-72
2023/11/13 09:13:45;;;;;;;1999.90;999.90;;;9.20;99.90;;;;;;4965972;28;20058;-73
2023/11/13 09:16:10;;;;;;;1999.90;999.90;;;9.20;99.90;;;;;;4961108;28;20034;-72
2023/11/13 09:18:36;;;;;;;1999.90;999.90;;;9.30;99.90;;;;;;4973538;28;20054;-74
2023/11/13 09:21:02;;;;;;;1999.90;999.90;;;9.40;99.90;;;;;;4969330;28;20038;-73
2023/11/13 09:23:28;;;;;;;1999.90;999.90;;;9.40;99.90;;;;;;4968841;28;20027;-72
2023/11/13 09:25:54;;;;;;;1999.90;999.90;;;9.50;99.90;;;;;;4966360;28;20028;-73
2023/11/13 09:28:20;;;;;;;1999.90;999.90;;;9.50;99.90;;;;;;4969473;28;20386;-72
2023/11/13 09:30:45;;;;;;;1999.90;999.90;;;9.60;99.90;;;;;;4961213;28;20031;-73
2023/11/13 09:33:11;;;;;;;1999.90;999.90;;;9.60;99.90;;;;;;4967056;28;20031;-74
2023/11/13 09:35:37;;;;;;;1999.90;999.90;;;9.70;99.90;;;;;;4961940;28;20322;-74
2023/11/13 09:38:03;;;;;;;1999.90;999.90;;;9.80;99.90;;;;;;4964178;28;20176;-75
2023/11/13 09:40:34;;;;;;;1999.90;999.90;;;9.80;99.90;;;;;;4963513;28;20432;-72
2023/11/13 09:43:07;;;;;;;1999.90;999.90;;;9.90;99.90;;;;;;4980877;28;20031;-74
2023/11/13 09:45:37;;;;;;;1999.90;999.90;;;9.90;99.90;;;;;;4960459;28;20030;-72
2023/11/13 09:48:07;;;;;;;1999.90;999.90;;;10.00;99.90;;;;;;4968647;28;20027;-72
2023/11/13 09:50:34;;;;;;;1999.90;999.90;;;10.00;99.90;;;;;;4971806;28;20080;-72
2023/11/13 09:53:02;;;;;;;1999.90;999.90;;;10.00;99.90;;;;;;4960051;28;20031;-72
2023/11/13 09:55:29;;;;;;;1999.90;999.90;;;10.10;99.90;;;;;;4966438;28;20054;-73
2023/11/13 09:57:56;;;;;;;1999.90;999.90;;;10.10;99.90;;;;;;4966060;28;20057;-73
2023/11/13 10:00:26;;;;;;;1999.90;999.90;;;10.20;99.90;;;;;;4967652;28;20038;-71
2023/11/13 10:02:54;;;;;;;1999.90;999.90;;;10.20;99.90;;;;;;4989117;28;20069;-74
2023/11/13 10:05:30;;;;;;;1999.90;999.90;;;10.30;99.90;;;;;;4974003;28;20321;-73
2023/11/13 10:07:57;;;;;;;1999.90;999.90;;;10.30;99.90;;;;;;4967713;28;20041;-73
2023/11/13 10:10:27;;;;;;;1999.90;999.90;;;10.40;99.90;;;;;;4969565;28;20053;-72
2023/11/13 10:12:55;;;;;;;1999.90;999.90;;;10.40;99.90;;;;;;4977438;28;20430;-75
2023/11/13 10:15:25;;;;;;;1999.90;999.90;;;10.40;99.90;;;;;;4969722;28;20122;-74
2023/11/13 10:17:53;;;;;;;1999.90;999.90;;;10.50;99.90;;;;;;4973404;28;20483;-74
2023/11/13 10:20:22;;;;;;;1999.90;999.90;;;10.50;99.90;;;;;;5008454;28;20036;-73
2023/11/13 10:23:00;;;;;;;1999.90;999.90;;;10.50;99.90;;;;;;4969490;28;20032;-73
2023/11/13 10:25:41;;;;;;;1999.90;999.90;;;10.50;99.90;;;;;;4960519;28;20034;-73
2023/11/13 10:28:10;;;;;;;1999.90;999.90;;;10.50;99.90;;;;;;4959695;28;20050;-72
2023/11/13 10:30:51;;;;;;;1999.90;999.90;;;10.50;99.90;;;;;;4971805;28;20591;-74
2023/11/13 10:33:17;;;;;;;1999.90;999.90;;;10.50;99.90;;;;;;4973573;28;20448;-72
2023/11/13 10:35:45;;;;;;;1999.90;999.90;;;10.50;99.90;;;;;;4967427;28;20028;-74
2023/11/13 10:38:14;;;;;;;1999.90;999.90;;;10.50;99.90;;;;;;4972447;28;20066;-73
2023/11/13 10:40:58;;;;;;;1999.90;999.90;;;10.50;99.90;;;;;;4964414;28;20430;-74
2023/11/13 10:43:39;;;;;;;1999.90;999.90;;;10.50;99.90;;;;;;4968900;28;20141;-74
2023/11/13 10:46:09;;;;;;;1999.90;999.90;;;10.50;99.90;;;;;;4964850;28;20394;-74
2023/11/13 10:48:42;;;;;;;1999.90;999.90;;;10.50;99.90;;;;;;4992056;28;20082;-75
2023/11/13 10:51:09;;;;;;;1999.90;999.90;;;10.50;99.90;;;;;;4960989;28;20031;-75
2023/11/13 10:53:46;;;;;;;1999.90;999.90;;;10.50;99.90;;;;;;4972144;28;20035;-75
2023/11/13 10:56:13;;;;;;;;;;;10.50;99.90;;;;;;4970185;28;20030;-74
2023/11/13 10:58:39;;;;;;;1999.90;999.90;;;10.60;99.90;;;;;;4985164;28;19914;-74
2023/11/13 11:01:10;;;;;;;1999.90;999.90;;;10.60;99.90;;;;;;4974038;28;20064;-76
2023/11/13 11:03:39;;;;;;;1999.90;999.90;;;10.60;99.90;;;;;;4969034;28;20463;-74
2023/11/13 11:06:14;;;;;;;1999.90;999.90;;;10.60;99.90;;;;;;4970383;28;20035;-74
2023/11/13 11:08:43;;;;;;;1999.90;999.90;;;10.60;99.90;;;;;;4970807;28;20031;-74
2023/11/13 11:11:11;;;;;;;1999.90;999.90;;;10.70;99.90;;;;;;4975713;28;20022;-74
2023/11/13 11:13:41;;;;;;;1999.90;999.90;;;10.70;99.90;;;;;;4977604;28;20038;-74
2023/11/13 11:16:27;;;;;;;1999.90;999.90;;;10.60;99.90;;;;;;4960598;28;20102;-74
2023/11/13 11:19:27;;;;;;;1999.90;999.90;;;10.60;99.90;;;;;;5001261;28;20500;-74
2023/11/13 11:22:33;;;;;;;1999.90;999.90;;;10.60;99.90;;;;;;4967449;28;20455;-72
2023/11/13 11:25:17;;;;;;;1999.90;999.90;;;10.60;99.90;;;;;;4967526;28;20098;-74
2023/11/13 11:27:44;;;;;;;1999.90;999.90;;;10.70;99.90;;;;;;4957130;28;20360;-72
2023/11/13 11:30:20;;;;;;;1999.90;999.90;;;10.80;99.90;;;;;;4975124;28;20027;-73
2023/11/13 11:32:55;;;;;;;1999.90;999.90;;;10.80;99.90;;;;;;4968891;28;20121;-73
2023/11/13 11:35:22;;;;;;;1999.90;999.90;;;10.90;99.90;;;;;;4962191;28;20031;-74
2023/11/13 11:38:29;;;;;;;1999.90;999.90;;;10.90;99.90;;;;;;4962804;28;20047;-74
2023/11/13 11:40:58;;;;;;;1999.90;999.90;;;10.90;99.90;;;;;;4961778;28;20438;-73
2023/11/13 11:43:33;;;;;;;1999.90;999.90;;;11.00;99.90;;;;;;4965183;28;20032;-72
2023/11/13 11:45:59;;;;;;;1999.90;999.90;;;11.00;99.90;;;;;;4961867;28;20424;-73
2023/11/13 11:48:26;;;;;;;1999.90;999.90;;;11.10;99.90;;;;;;4966652;28;20368;-75
2023/11/13 11:51:13;;;;;;;1999.90;999.90;;;11.20;99.90;;;;;;4966983;28;20034;-73
2023/11/13 11:53:53;;;;;;;1999.90;999.90;;;11.20;99.90;;;;;;4966509;28;20081;-73
2023/11/13 11:56:19;;;;;;;1999.90;999.90;;;11.20;99.90;;;;;;4970435;28;20118;-73
2023/11/13 11:58:45;;;;;;;1999.90;999.90;;;11.20;99.90;;;;;;4968985;28;20109;-73
2023/11/13 12:01:13;;;;;;;1999.90;999.90;;;11.30;99.90;;;;;;4977350;28;20072;-73
2023/11/13 12:03:38;;;;;;;1999.90;999.90;;;11.30;99.90;;;;;;4975180;28;20713;-73
2023/11/13 12:06:08;;;;;;;1999.90;999.90;;;11.30;99.90;;;;;;4969275;28;20069;-73
2023/11/13 12:08:35;;;;;;;1999.90;999.90;;;11.40;99.90;;;;;;4962130;28;20325;-73
2023/11/13 12:11:03;;;;;;;1999.90;999.90;;;11.50;99.90;;;;;;4967798;28;20034;-73
2023/11/13 12:13:28;;;;;;;;;;;11.60;99.90;;;;;;4966712;28;20027;-73
2023/11/13 12:15:54;;;;;;;1999.90;999.90;;;11.60;99.90;;;;;;4963159;28;20335;-73
2023/11/13 12:18:20;;;;;;;1999.90;999.90;;;11.60;99.90;;;;;;4963740;28;20031;-74
2023/11/13 12:20:46;;;;;;;1999.90;999.90;;;11.70;99.90;;;;;;4969193;28;20111;-73
2023/11/13 12:23:13;;;;;;;1999.90;999.90;;;11.80;99.90;;;;;;4972736;28;20023;-73
2023/11/13 12:25:39;;;;;;;1999.90;999.90;;;11.90;99.90;;;;;;4967499;28;20413;-74
2023/11/13 12:28:05;;;;;;;1999.90;999.90;;;11.90;99.90;;;;;;4969377;28;20035;-76
2023/11/13 12:30:31;;;;;;;1999.90;999.90;;;11.90;99.90;;;;;;4967301;28;20031;-73
2023/11/13 12:32:57;;;;;;;1999.90;999.90;;;12.10;99.90;;;;;;4964005;28;20329;-73
2023/11/13 12:35:23;;;;;;;1999.90;999.90;;;12.10;99.90;;;;;;4973201;28;20030;-72
2023/11/13 12:37:50;;;;;;;1999.90;999.90;;;12.20;99.90;;;;;;4978047;28;20055;-74